createdAt,value
2019-01-25T00:01:50.228Z,20.33
2019-01-25T00:04:19.798Z,22.20
2019-01-25T00:06:49.381Z,21.73
2019-01-25T00:09:18.945Z,22.87
2019-01-25T00:12:07.539Z,22.03
2019-01-25T00:14:37.062Z,22.40
2019-01-25T00:17:06.682Z,23.07
2019-01-25T00:19:36.212Z,23.13
2019-01-25T00:22:06.798Z,21.93
2019-01-25T00:24:36.282Z,23.73
2019-01-25T00:27:06.244Z,22.97
2019-01-25T00:29:35.723Z,24.03
2019-01-25T00:32:05.405Z,22.83
2019-01-25T00:34:34.987Z,23.97
2019-01-25T00:37:23.500Z,24.87
2019-01-25T00:39:53.413Z,23.20
2019-01-25T00:42:23.348Z,24.73
2019-01-25T00:44:52.901Z,25.33
2019-01-25T00:47:22.467Z,25.70
2019-01-25T00:49:52.016Z,26.17
2019-01-25T00:52:21.491Z,25.80
2019-01-25T00:54:51.034Z,25.87
2019-01-25T01:00:34.691Z,24.40
2019-01-25T01:12:05.673Z,25.90
2019-01-25T01:14:54.292Z,26.20
2019-01-25T01:17:43.034Z,25.67
2019-01-25T01:20:24.228Z,25.23
2019-01-25T01:23:05.851Z,25.37
2019-01-25T01:25:47.439Z,26.77
2019-01-25T01:28:28.770Z,26.00
2019-01-25T01:31:11.050Z,26.27
2019-01-25T01:36:38.497Z,25.77
2019-01-25T01:39:19.868Z,25.63
2019-01-25T01:44:49.727Z,25.13
2019-01-25T01:50:20.355Z,26.33
2019-01-25T01:53:01.656Z,25.20
2019-01-25T01:55:42.539Z,25.37
2019-01-25T01:58:23.389Z,24.33
2019-01-25T02:01:05.032Z,25.70
2019-01-25T02:06:35.381Z,24.43
2019-01-25T02:09:16.915Z,25.17
2019-01-25T02:14:18.998Z,26.37
2019-01-25T02:17:00.494Z,25.23
2019-01-25T02:22:27.539Z,26.23
2019-01-25T02:25:08.471Z,26.00
2019-01-25T02:27:49.147Z,25.33
2019-01-25T02:30:31.599Z,26.33
2019-01-25T02:33:13.097Z,26.13
2019-01-25T02:35:54.445Z,26.17
2019-01-25T02:38:35.887Z,25.50
2019-01-25T02:41:17.325Z,24.57
2019-01-25T02:43:58.858Z,25.20
2019-01-25T02:49:36.438Z,24.03
2019-01-25T02:55:07.985Z,24.63
2019-01-25T02:57:49.340Z,25.37
2019-01-25T03:03:27.644Z,24.53
2019-01-25T03:09:01.317Z,24.67
2019-01-25T03:11:42.722Z,24.40
2019-01-25T03:14:24.188Z,24.30
2019-01-25T03:17:05.740Z,24.07
2019-01-25T03:19:47.103Z,25.30
2019-01-25T03:22:28.627Z,23.60
2019-01-25T03:25:10.385Z,23.90
2019-01-25T03:27:51.570Z,25.20
2019-01-25T03:36:25.191Z,24.30
2019-01-25T03:39:06.035Z,26.87
2019-01-25T03:41:46.803Z,24.40
2019-01-25T03:44:28.292Z,25.20
2019-01-25T03:49:58.358Z,26.03
2019-01-25T03:58:15.112Z,25.03
2019-01-25T04:00:57.071Z,26.07
2019-01-25T04:09:26.114Z,24.50
2019-01-25T04:12:07.178Z,26.30
2019-01-25T04:14:48.740Z,25.87
2019-01-25T04:20:20.100Z,26.03
2019-01-25T04:28:53.117Z,25.53
2019-01-25T04:34:23.764Z,25.70
2019-01-25T04:39:54.344Z,27.20
2019-01-25T04:48:19.860Z,26.97
2019-01-25T04:53:57.722Z,26.33
2019-01-25T04:56:39.322Z,26.43
2019-01-25T04:59:30.685Z,34.40
2019-01-25T05:02:00.286Z,29.13
2019-01-25T05:04:50.383Z,26.40
2019-01-25T05:07:38.928Z,30.20
2019-01-25T05:10:27.636Z,34.73
2019-01-25T05:21:48.496Z,27.30
2019-01-25T05:24:18.098Z,27.90
2019-01-25T05:27:06.796Z,27.30
2019-01-25T05:29:56.132Z,28.00
2019-01-25T05:32:44.941Z,26.60
2019-01-25T05:35:34.829Z,26.73
2019-01-25T05:38:23.900Z,25.97
2019-01-25T05:41:12.673Z,37.85
2019-01-25T05:44:21.696Z,28.43
2019-01-25T05:50:04.610Z,28.40
2019-01-25T05:52:52.564Z,27.80
2019-01-25T05:55:41.217Z,35.38
2019-01-25T05:58:29.823Z,27.67
2019-01-25T06:01:18.370Z,28.83
2019-01-25T06:07:02.747Z,27.97
2019-01-25T06:09:51.278Z,28.13
2019-01-25T06:12:39.904Z,27.30
2019-01-25T06:15:29.588Z,27.63
2019-01-25T06:18:18.126Z,28.43
2019-01-25T06:23:48.877Z,29.13
2019-01-25T06:26:30.048Z,29.10
2019-01-25T06:29:11.575Z,28.43
2019-01-25T06:31:52.294Z,29.23
2019-01-25T06:34:32.960Z,28.03
2019-01-25T06:37:14.669Z,28.47
2019-01-25T06:42:43.739Z,28.73
2019-01-25T06:48:13.830Z,28.80
2019-01-25T06:50:55.578Z,30.00
2019-01-25T06:53:37.179Z,30.47
2019-01-25T06:56:17.880Z,30.50
2019-01-25T07:02:08.797Z,29.73
2019-01-25T07:07:36.422Z,30.20
2019-01-25T07:13:04.237Z,30.70
2019-01-25T07:15:45.203Z,28.87
2019-01-25T07:18:26.711Z,30.17
2019-01-25T07:21:08.176Z,28.90
2019-01-25T07:23:49.376Z,30.03
2019-01-25T07:26:30.046Z,29.80
2019-01-25T07:29:11.752Z,30.30
2019-01-25T07:34:36.078Z,30.33
2019-01-25T07:37:05.521Z,32.17
2019-01-25T07:39:35.683Z,33.00
2019-01-25T07:42:05.592Z,33.13
2019-01-25T07:44:35.636Z,31.17
2019-01-25T07:47:24.399Z,33.13
2019-01-25T07:56:01.124Z,31.40
2019-01-25T07:58:49.783Z,33.50
2019-01-25T08:01:38.378Z,31.07
2019-01-25T08:07:49.418Z,31.47
2019-01-25T08:10:19.141Z,31.77
2019-01-25T08:12:48.675Z,32.23
2019-01-25T08:15:37.321Z,32.23
2019-01-25T08:18:25.977Z,34.07
2019-01-25T08:29:49.405Z,34.60
2019-01-25T08:40:55.722Z,32.37
2019-01-25T08:44:23.098Z,32.73
2019-01-25T08:50:15.508Z,33.63
2019-01-25T08:56:06.365Z,32.57
2019-01-25T09:04:35.836Z,33.83
2019-01-25T09:07:24.456Z,33.60
2019-01-25T09:09:54.017Z,33.93
2019-01-25T09:19:30.896Z,35.00
2019-01-25T09:22:19.781Z,34.13
2019-01-25T09:25:09.376Z,34.20
2019-01-25T09:27:58.015Z,35.83
2019-01-25T09:33:42.408Z,33.67
2019-01-25T09:36:30.971Z,33.77
2019-01-25T09:39:19.952Z,34.93
2019-01-25T09:42:08.735Z,35.03
2019-01-25T09:44:56.687Z,33.87
2019-01-25T09:47:45.263Z,36.40
2019-01-25T09:50:54.323Z,36.10
2019-01-25T09:53:43.063Z,35.43
2019-01-25T09:59:39.494Z,37.17
2019-01-25T10:02:30.837Z,37.63
2019-01-25T10:05:19.548Z,47.08
2019-01-25T10:11:03.253Z,37.70
2019-01-25T10:13:51.846Z,36.90
2019-01-25T10:16:40.743Z,36.40
2019-01-25T10:19:10.766Z,35.83
2019-01-25T10:22:00.115Z,34.47
2019-01-25T10:24:29.641Z,34.50
2019-01-25T10:30:21.671Z,35.23
2019-01-25T10:36:06.116Z,34.77
2019-01-25T10:41:50.541Z,35.83
2019-01-25T10:47:59.894Z,37.20
2019-01-25T10:50:48.470Z,35.63
2019-01-25T10:56:41.960Z,35.50
2019-01-25T10:59:29.249Z,34.93
2019-01-25T11:02:17.750Z,36.17
2019-01-25T11:05:06.792Z,34.17
2019-01-25T11:07:42.749Z,34.83
2019-01-25T11:10:12.224Z,34.53
2019-01-25T11:12:43.086Z,35.47
2019-01-25T11:15:14.384Z,35.67
2019-01-25T11:18:03.169Z,39.70
2019-01-25T11:20:51.755Z,39.87
2019-01-25T11:23:21.331Z,33.80
2019-01-25T11:26:10.040Z,35.27
2019-01-25T11:28:58.595Z,33.47
2019-01-25T11:31:47.243Z,37.13
2019-01-25T11:34:38.542Z,35.37
2019-01-25T11:37:31.460Z,33.57
2019-01-25T11:43:14.966Z,33.73
2019-01-25T11:46:03.388Z,35.00
2019-01-25T11:48:52.056Z,36.90
2019-01-25T11:51:21.664Z,35.23
2019-01-25T11:54:10.173Z,36.73
2019-01-25T11:57:01.857Z,34.93
2019-01-25T11:59:50.367Z,36.37
2019-01-25T12:05:41.257Z,36.30
2019-01-25T12:17:15.823Z,36.50
2019-01-25T12:20:04.720Z,36.17
2019-01-25T12:28:37.215Z,36.20
2019-01-25T12:34:07.640Z,36.67
2019-01-25T12:39:23.719Z,34.23
2019-01-25T12:53:41.071Z,37.77
2019-01-25T13:05:44.146Z,35.00
2019-01-25T13:08:32.800Z,35.67
2019-01-25T13:11:16.903Z,34.20
2019-01-25T13:13:59.489Z,36.10
2019-01-25T13:19:16.382Z,34.33
2019-01-25T13:22:04.991Z,37.73
2019-01-25T13:24:53.756Z,35.83
2019-01-25T13:30:19.640Z,34.30
2019-01-25T13:33:08.229Z,35.77
2019-01-25T13:38:57.337Z,34.37
2019-01-25T13:44:41.698Z,33.80
2019-01-25T13:47:30.191Z,35.27
2019-01-25T13:50:19.905Z,34.13
2019-01-25T13:52:49.879Z,33.43
2019-01-25T13:55:38.469Z,33.63
2019-01-25T13:58:27.512Z,35.43
2019-01-25T14:01:16.030Z,36.30
2019-01-25T14:04:06.248Z,34.73
2019-01-25T14:15:41.870Z,34.73
2019-01-25T14:18:12.400Z,33.80
2019-01-25T14:20:52.341Z,34.13
2019-01-25T14:23:40.896Z,35.17
2019-01-25T14:32:21.791Z,36.40
2019-01-25T14:35:11.092Z,36.83
2019-01-25T14:49:29.737Z,35.60
2019-01-25T14:52:19.664Z,35.70
2019-01-25T15:00:53.992Z,35.70
2019-01-25T15:09:10.608Z,31.93
2019-01-25T15:11:59.261Z,35.20
2019-01-25T15:17:43.542Z,32.13
2019-01-25T15:23:24.957Z,31.20
2019-01-25T15:26:13.568Z,30.17
2019-01-25T15:29:02.144Z,30.57
2019-01-25T15:37:47.900Z,27.90
2019-01-25T15:43:37.704Z,28.17
2019-01-25T15:46:26.410Z,28.23
2019-01-25T15:58:12.746Z,22.43
2019-01-25T16:03:43.211Z,23.83
2019-01-25T16:09:05.505Z,25.17
2019-01-25T16:11:35.057Z,24.90
2019-01-25T16:14:17.894Z,25.60
2019-01-25T16:16:43.782Z,27.27
2019-01-25T16:19:14.238Z,25.57
2019-01-25T16:21:48.091Z,26.33
2019-01-25T16:24:23.062Z,26.47
2019-01-25T16:26:52.609Z,27.03
2019-01-25T16:29:22.234Z,25.37
2019-01-25T16:31:51.870Z,22.83
2019-01-25T16:34:21.545Z,22.53
2019-01-25T16:36:51.154Z,23.33
2019-01-25T16:39:20.920Z,23.13
2019-01-25T16:41:50.763Z,21.43
2019-01-25T16:44:25.528Z,21.70
2019-01-25T16:46:51.565Z,19.63
2019-01-25T16:49:21.246Z,20.17
2019-01-25T16:51:50.778Z,18.87
2019-01-25T16:54:20.632Z,16.57
2019-01-25T16:56:50.163Z,14.87
2019-01-25T16:59:19.808Z,15.63
2019-01-25T17:01:49.309Z,14.47
2019-01-25T17:04:18.971Z,13.07
2019-01-25T17:06:48.446Z,16.95
2019-01-25T17:09:18.076Z,15.18
2019-01-25T17:11:47.650Z,15.37
2019-01-25T17:14:17.263Z,14.27
2019-01-25T17:16:46.822Z,15.17
2019-01-25T17:19:16.420Z,16.50
2019-01-25T17:21:45.977Z,17.60
2019-01-25T17:24:15.503Z,19.02
2019-01-25T17:26:45.044Z,21.27
2019-01-25T17:29:14.700Z,18.27
2019-01-25T17:31:44.778Z,16.60
2019-01-25T17:34:14.290Z,17.83
2019-01-25T17:36:43.875Z,17.77
2019-01-25T17:39:15.831Z,18.10
2019-01-25T17:41:45.408Z,17.47
2019-01-25T17:44:14.909Z,18.20
2019-01-25T17:46:44.527Z,17.80
2019-01-25T17:49:14.699Z,18.67
2019-01-25T17:51:44.235Z,19.30
2019-01-25T17:54:14.017Z,20.20
2019-01-25T17:56:43.874Z,18.13
2019-01-25T17:59:15.694Z,18.70
2019-01-25T18:01:44.945Z,19.00
2019-01-25T18:04:14.785Z,18.80
2019-01-25T18:06:44.331Z,17.83
2019-01-25T18:09:14.590Z,18.13
2019-01-25T18:11:44.437Z,19.97
2019-01-25T18:14:14.150Z,19.47
2019-01-25T18:16:44.107Z,20.30
2019-01-25T18:19:14.497Z,18.83
2019-01-25T18:21:44.646Z,19.43
2019-01-25T18:24:14.564Z,17.73
2019-01-25T18:26:45.039Z,18.17
2019-01-25T18:29:26.266Z,19.47
2019-01-25T18:31:56.900Z,19.90
2019-01-25T18:34:26.925Z,18.13
2019-01-25T18:36:56.674Z,17.70
2019-01-25T18:39:26.536Z,18.43
2019-01-25T18:41:56.075Z,23.23
2019-01-25T18:44:25.634Z,19.57
2019-01-25T18:46:55.171Z,19.40
2019-01-25T18:49:24.820Z,19.13
2019-01-25T18:51:54.407Z,18.47
2019-01-25T18:54:25.650Z,19.47
2019-01-25T18:56:55.796Z,19.20
2019-01-25T18:59:48.158Z,19.77
2019-01-25T19:02:17.754Z,20.70
2019-01-25T19:04:47.679Z,21.67
2019-01-25T19:07:17.769Z,21.20
2019-01-25T19:09:47.253Z,21.70
2019-01-25T19:12:16.949Z,22.33
2019-01-25T19:14:46.594Z,22.10
2019-01-25T19:17:16.237Z,24.10
2019-01-25T19:19:45.864Z,22.77
2019-01-25T19:22:15.432Z,23.03
2019-01-25T19:24:45.024Z,21.27
2019-01-25T19:27:14.610Z,22.03
2019-01-25T19:29:44.144Z,21.87
2019-01-25T19:32:14.172Z,22.17
2019-01-25T19:34:44.316Z,23.00
2019-01-25T19:37:14.599Z,21.90
2019-01-25T19:39:44.320Z,22.87
2019-01-25T19:42:13.977Z,21.30
2019-01-25T19:44:43.597Z,21.83
2019-01-25T19:47:13.232Z,22.60
2019-01-25T19:49:42.915Z,21.83
2019-01-25T19:52:12.449Z,21.83
2019-01-25T19:54:42.088Z,22.63
2019-01-25T19:57:12.299Z,21.67
2019-01-25T19:59:41.950Z,22.50
2019-01-25T20:02:11.745Z,21.43
2019-01-25T20:04:41.428Z,23.77
2019-01-25T20:07:15.137Z,22.87
2019-01-25T20:09:44.780Z,23.57
2019-01-25T20:12:14.616Z,21.87
2019-01-25T20:14:44.100Z,23.43
2019-01-25T20:17:13.821Z,23.27
2019-01-25T20:19:43.453Z,23.77
2019-01-25T20:22:13.028Z,22.90
2019-01-25T20:24:42.600Z,22.83
2019-01-25T20:27:12.780Z,22.27
2019-01-25T20:29:42.372Z,24.33
2019-01-25T20:32:11.928Z,24.90
2019-01-25T20:34:41.561Z,23.77
2019-01-25T20:37:11.171Z,29.57
2019-01-25T20:39:40.785Z,25.23
2019-01-25T20:42:10.386Z,23.17
2019-01-25T20:44:40.034Z,23.47
2019-01-25T20:47:09.880Z,24.73
2019-01-25T20:49:39.443Z,24.23
2019-01-25T20:52:09.159Z,24.37
2019-01-25T20:54:38.885Z,22.93
2019-01-25T20:57:08.619Z,22.13
2019-01-25T20:59:38.275Z,23.20
2019-01-25T21:02:08.404Z,23.57
2019-01-25T21:04:38.209Z,20.90
2019-01-25T21:07:07.689Z,21.73
2019-01-25T21:09:37.261Z,21.37
2019-01-25T21:12:06.960Z,22.57
2019-01-25T21:14:36.561Z,22.70
2019-01-25T21:17:06.176Z,22.40
2019-01-25T21:19:35.773Z,22.07
2019-01-25T21:22:05.505Z,22.90
2019-01-25T21:24:35.052Z,21.67
2019-01-25T21:27:05.073Z,23.00
2019-01-25T21:29:34.681Z,22.63
2019-01-25T21:32:04.284Z,20.07
2019-01-25T21:34:33.900Z,20.63
2019-01-25T21:37:03.658Z,21.67
2019-01-25T21:39:33.199Z,22.37
2019-01-25T21:42:02.804Z,22.03
2019-01-25T21:44:32.520Z,22.23
2019-01-25T21:47:03.664Z,21.73
2019-01-25T21:49:35.543Z,22.03
2019-01-25T21:52:05.133Z,22.17
2019-01-25T21:54:34.898Z,20.53
2019-01-25T21:57:04.698Z,21.53
2019-01-25T21:59:34.902Z,21.07
2019-01-25T22:02:04.665Z,20.17
2019-01-25T22:04:34.269Z,21.20
2019-01-25T22:07:03.921Z,20.63
2019-01-25T22:09:33.947Z,21.17
2019-01-25T22:12:05.015Z,20.77
2019-01-25T22:14:37.353Z,21.83
2019-01-25T22:17:08.511Z,20.03
2019-01-25T22:19:38.936Z,21.23
2019-01-25T22:22:08.807Z,21.40
2019-01-25T22:24:38.374Z,20.73
2019-01-25T22:27:08.023Z,21.30
2019-01-25T22:29:37.557Z,21.13
2019-01-25T22:32:07.078Z,20.90
2019-01-25T22:34:36.596Z,21.53
2019-01-25T22:37:06.547Z,21.13
2019-01-25T22:39:36.094Z,19.63
2019-01-25T22:42:05.679Z,20.00
2019-01-25T22:44:35.610Z,20.53
2019-01-25T22:47:05.230Z,20.60
2019-01-25T22:49:34.826Z,20.27
2019-01-25T22:52:04.572Z,19.80
2019-01-25T22:54:34.543Z,19.80
2019-01-25T22:57:04.060Z,19.83
2019-01-25T22:59:33.643Z,20.17
2019-01-25T23:02:03.107Z,18.17
2019-01-25T23:05:10.020Z,18.47
2019-01-25T23:07:39.595Z,17.27
2019-01-25T23:10:13.382Z,16.50
2019-01-25T23:12:43.006Z,16.27
2019-01-25T23:15:15.633Z,16.80
2019-01-25T23:17:45.240Z,17.23
2019-01-25T23:20:15.086Z,16.60
2019-01-25T23:22:44.719Z,16.50
2019-01-25T23:25:15.355Z,16.47
2019-01-25T23:27:45.484Z,17.63
2019-01-25T23:30:17.003Z,16.83
2019-01-25T23:32:46.511Z,16.93
2019-01-25T23:35:16.279Z,16.07
2019-01-25T23:37:45.838Z,16.17
2019-01-25T23:40:16.143Z,16.70
2019-01-25T23:42:45.770Z,16.93
2019-01-25T23:45:15.349Z,16.67
2019-01-25T23:47:44.971Z,16.83
2019-01-25T23:50:15.018Z,16.60
2019-01-25T23:52:44.556Z,16.13
2019-01-25T23:55:14.126Z,16.20
2019-01-25T23:57:43.646Z,14.60
